createdAt,value
2023-05-03T00:00:18.716Z,98295.81
2023-05-03T00:02:48.598Z,98303.25
2023-05-03T00:05:17.858Z,98298.38
2023-05-03T00:07:47.355Z,98298.81
2023-05-03T00:10:16.852Z,98300.19
2023-05-03T00:12:45.970Z,98293.34
2023-05-03T00:15:14.441Z,98283.84
2023-05-03T00:17:42.916Z,98276.44
2023-05-03T00:20:13.190Z,98281.88
2023-05-03T00:22:41.518Z,98282.75
2023-05-03T00:25:10.987Z,98281.31
2023-05-03T00:27:39.489Z,98277.97
2023-05-03T00:30:10.025Z,98278.94
2023-05-03T00:32:38.754Z,98278.41
2023-05-03T00:35:10.470Z,98276.56
2023-05-03T00:37:40.380Z,98276.69
2023-05-03T00:40:10.550Z,98271.66
2023-05-03T00:42:38.898Z,98267.34
2023-05-03T00:45:11.498Z,98261.19
2023-05-03T00:47:40.586Z,98268.19
2023-05-03T00:50:11.895Z,98264.69
2023-05-03T00:52:42.712Z,98259.38
2023-05-03T00:55:11.554Z,98263.69
2023-05-03T00:57:39.854Z,98261.75
2023-05-03T01:00:13.608Z,98258.97
2023-05-03T01:02:42.221Z,98261.47
2023-05-03T01:05:11.215Z,98261.47
2023-05-03T01:07:50.570Z,98256.31
2023-05-03T01:10:30.431Z,98263.13
2023-05-03T01:13:09.184Z,98268.59
2023-05-03T01:15:47.045Z,98268.72
2023-05-03T01:18:22.780Z,98259.09
2023-05-03T01:20:54.186Z,98263.41
2023-05-03T01:23:34.787Z,98266.06
2023-05-03T01:26:21.680Z,98264.28
2023-05-03T01:28:50.329Z,98267.91
2023-05-03T01:31:25.378Z,98274.75
2023-05-03T01:34:10.863Z,98278.25
2023-05-03T01:36:41.351Z,98272.09
2023-05-03T01:39:16.366Z,98275.75
2023-05-03T01:41:47.017Z,98282.88
2023-05-03T01:44:16.433Z,98279.22
2023-05-03T01:46:49.714Z,98275.88
2023-05-03T01:49:18.062Z,98271.38
2023-05-03T01:51:46.377Z,98269.88
2023-05-03T01:54:18.160Z,98271.53
2023-05-03T01:56:47.986Z,98283.00
2023-05-03T01:59:16.317Z,98276.97
2023-05-03T02:01:44.604Z,98282.31
2023-05-03T02:04:13.003Z,98277.69
2023-05-03T02:06:41.323Z,98271.53
2023-05-03T02:09:09.675Z,98279.50
2023-05-03T02:11:37.988Z,98270.56
2023-05-03T02:14:08.040Z,98280.34
2023-05-03T02:16:36.393Z,98275.88
2023-05-03T02:19:05.499Z,98283.00
2023-05-03T02:21:35.719Z,98284.00
2023-05-03T02:24:04.087Z,98286.66
2023-05-03T02:26:32.363Z,98284.00
2023-05-03T02:29:00.664Z,98284.81
2023-05-03T02:31:30.440Z,98286.66
2023-05-03T02:33:58.829Z,98283.84
2023-05-03T02:36:27.670Z,98293.63
2023-05-03T02:38:56.072Z,98290.13
2023-05-03T02:41:24.497Z,98289.16
2023-05-03T02:43:52.821Z,98283.28
2023-05-03T02:46:21.272Z,98289.31
2023-05-03T02:48:50.993Z,98288.47
2023-05-03T02:51:19.278Z,98285.81
2023-05-03T02:53:47.635Z,98278.81
2023-05-03T02:56:15.975Z,98283.28
2023-05-03T02:58:44.436Z,98287.75
2023-05-03T03:01:13.113Z,98278.13
2023-05-03T03:03:41.592Z,98279.78
2023-05-03T03:06:11.460Z,98280.78
2023-05-03T03:08:39.985Z,98286.09
2023-05-03T03:11:08.627Z,98286.78
2023-05-03T03:13:39.817Z,98281.47
2023-05-03T03:16:09.067Z,98281.34
2023-05-03T03:18:37.656Z,98279.78
2023-05-03T03:21:06.425Z,98274.31
2023-05-03T03:23:36.103Z,98283.28
2023-05-03T03:26:04.506Z,98284.13
2023-05-03T03:28:32.785Z,98279.63
2023-05-03T03:31:01.363Z,98288.47
2023-05-03T03:33:29.692Z,98285.81
2023-05-03T03:35:58.154Z,98294.63
2023-05-03T03:38:26.542Z,98288.47
2023-05-03T03:40:56.330Z,98293.63
2023-05-03T03:43:24.774Z,98287.47
2023-05-03T03:45:53.083Z,98287.47
2023-05-03T03:48:21.426Z,98283.44
2023-05-03T03:50:52.790Z,98289.31
2023-05-03T03:53:21.163Z,98288.47
2023-05-03T03:55:49.461Z,98293.06
2023-05-03T03:58:19.128Z,98288.75
2023-05-03T04:00:49.264Z,98286.94
2023-05-03T04:03:17.765Z,98297.56
2023-05-03T04:05:49.300Z,98294.91
2023-05-03T04:08:20.508Z,98301.03
2023-05-03T04:10:48.813Z,98303.69
2023-05-03T04:13:18.495Z,98310.72
2023-05-03T04:15:49.751Z,98312.38
2023-05-03T04:18:18.064Z,98307.06
2023-05-03T04:20:46.458Z,98310.72
2023-05-03T04:23:14.977Z,98299.38
2023-05-03T04:25:48.476Z,98308.72
2023-05-03T04:28:18.685Z,98314.03
2023-05-03T04:30:47.404Z,98315.75
2023-05-03T04:33:16.139Z,98316.56
2023-05-03T04:35:50.197Z,98314.75
2023-05-03T04:38:20.872Z,98321.72
2023-05-03T04:40:49.365Z,98318.41
2023-05-03T04:43:19.056Z,98320.78
2023-05-03T04:45:47.370Z,98319.78
2023-05-03T04:48:18.105Z,98327.91
2023-05-03T04:50:46.670Z,98333.78
2023-05-03T04:53:15.565Z,98337.25
2023-05-03T04:55:43.846Z,98335.31
2023-05-03T04:58:15.170Z,98332.66
2023-05-03T05:00:47.138Z,98340.63
2023-05-03T05:03:18.528Z,98342.44
2023-05-03T05:05:47.375Z,98350.84
2023-05-03T05:08:16.089Z,98348.19
2023-05-03T05:10:44.779Z,98350.69
2023-05-03T05:13:13.376Z,98349.56
2023-05-03T05:15:44.601Z,98349.28
2023-05-03T05:18:14.314Z,98351.66
2023-05-03T05:20:42.649Z,98356.84
2023-05-03T05:23:11.022Z,98352.38
2023-05-03T05:25:39.303Z,98362.72
2023-05-03T05:28:07.696Z,98360.91
2023-05-03T05:30:36.258Z,98365.94
2023-05-03T05:33:04.957Z,98368.31
2023-05-03T05:35:35.431Z,98365.50
2023-05-03T05:38:03.795Z,98373.22
2023-05-03T05:40:32.078Z,98375.03
2023-05-03T05:43:00.509Z,98377.00
2023-05-03T05:45:28.842Z,98382.03
2023-05-03T05:47:57.119Z,98380.63
2023-05-03T05:50:25.556Z,98388.19
2023-05-03T05:52:56.127Z,98395.63
2023-05-03T05:55:24.507Z,98395.22
2023-05-03T05:57:52.803Z,98388.75
2023-05-03T06:00:22.089Z,98381.34
2023-05-03T06:02:51.015Z,98383.44
2023-05-03T06:05:19.519Z,98383.81
2023-05-03T06:07:47.914Z,98385.38
2023-05-03T06:10:17.732Z,98385.09
2023-05-03T06:12:46.055Z,98387.47
2023-05-03T06:15:14.343Z,98390.00
2023-05-03T06:17:42.745Z,98387.72
2023-05-03T06:20:12.907Z,98390.22
2023-05-03T06:22:41.406Z,98392.47
2023-05-03T06:25:10.478Z,98394.69
2023-05-03T06:27:40.144Z,98390.06
2023-05-03T06:30:10.269Z,98403.09
2023-05-03T06:32:40.699Z,98400.28
2023-05-03T06:35:10.308Z,98392.16
2023-05-03T06:37:38.681Z,98394.66
2023-05-03T06:40:13.614Z,98402.50
2023-05-03T06:42:43.305Z,98400.38
2023-05-03T06:45:12.378Z,98399.28
2023-05-03T06:47:42.954Z,98400.78
2023-05-03T06:50:17.920Z,98403.16
2023-05-03T06:52:46.398Z,98402.03
2023-05-03T06:55:14.699Z,98396.41
2023-05-03T06:57:44.452Z,98401.31
2023-05-03T07:00:14.698Z,98397.53
2023-05-03T07:02:43.151Z,98399.75
2023-05-03T07:05:11.940Z,98400.28
2023-05-03T07:07:40.340Z,98394.66
2023-05-03T07:10:09.583Z,98401.50
2023-05-03T07:12:38.020Z,98401.06
2023-05-03T07:15:09.320Z,98393.78
2023-05-03T07:17:37.654Z,98396.88
2023-05-03T07:20:07.361Z,98402.72
2023-05-03T07:22:35.648Z,98396.94
2023-05-03T07:25:04.875Z,98401.69
2023-05-03T07:27:33.285Z,98400.28
2023-05-03T07:30:01.817Z,98384.13
2023-05-03T07:32:32.062Z,98390.38
2023-05-03T07:35:05.915Z,98394.81
2023-05-03T07:37:34.232Z,98389.03
2023-05-03T07:40:02.739Z,98389.09
2023-05-03T07:42:31.313Z,98390.19
2023-05-03T07:45:01.089Z,98385.75
2023-05-03T07:47:29.475Z,98385.00
2023-05-03T07:49:59.365Z,98388.06
2023-05-03T07:52:27.671Z,98375.06
2023-05-03T07:54:59.081Z,98373.44
2023-05-03T07:57:27.418Z,98374.56
2023-05-03T07:59:55.723Z,98374.59
2023-05-03T08:02:24.107Z,98372.16
2023-05-03T08:04:52.840Z,98381.38
2023-05-03T08:07:23.401Z,98375.25
2023-05-03T08:09:58.585Z,98374.31
2023-05-03T08:12:27.336Z,98369.84
2023-05-03T08:14:56.235Z,98365.56
2023-05-03T08:17:24.786Z,98370.78
2023-05-03T08:19:53.205Z,98372.50
2023-05-03T08:22:25.303Z,98372.03
2023-05-03T08:24:54.112Z,98366.72
2023-05-03T08:27:23.443Z,98370.44
2023-05-03T08:29:52.034Z,98366.75
2023-05-03T08:32:21.299Z,98369.81
2023-05-03T08:34:50.408Z,98371.84
2023-05-03T08:37:18.824Z,98374.19
2023-05-03T08:39:48.606Z,98375.53
2023-05-03T08:42:17.231Z,98375.22
2023-05-03T08:44:49.515Z,98358.03
2023-05-03T08:47:18.668Z,98363.56
2023-05-03T08:49:53.403Z,98357.72
2023-05-03T08:52:23.781Z,98366.25
2023-05-03T08:54:53.447Z,98362.59
2023-05-03T08:57:25.285Z,98362.13
2023-05-03T09:00:00.569Z,98361.13
2023-05-03T09:02:29.898Z,98365.31
2023-05-03T09:04:58.381Z,98367.81
2023-05-03T09:07:26.715Z,98363.47
2023-05-03T09:09:58.033Z,98360.84
2023-05-03T09:12:37.058Z,98361.69
2023-05-03T09:15:07.093Z,98358.66
2023-05-03T09:17:35.443Z,98365.38
2023-05-03T09:20:04.047Z,98361.00
2023-05-03T09:22:34.352Z,98365.69
2023-05-03T09:25:04.624Z,98362.34
2023-05-03T09:27:33.221Z,98367.03
2023-05-03T09:30:20.357Z,98369.19
2023-05-03T09:32:51.966Z,98366.66
2023-05-03T09:35:20.854Z,98366.66
2023-05-03T09:37:49.276Z,98364.31
2023-05-03T09:40:19.450Z,98362.09
2023-05-03T09:43:12.961Z,98362.94
2023-05-03T09:45:41.341Z,98360.59
2023-05-03T09:48:10.017Z,98364.78
2023-05-03T09:50:38.601Z,98360.91
2023-05-03T09:53:08.538Z,98357.56
2023-05-03T09:55:40.181Z,98351.88
2023-05-03T09:58:09.320Z,98359.03
2023-05-03T10:00:43.963Z,98356.19
2023-05-03T10:03:14.139Z,98360.00
2023-05-03T10:05:47.970Z,98361.19
2023-05-03T10:08:25.932Z,98359.47
2023-05-03T10:10:55.992Z,98346.00
2023-05-03T10:13:24.671Z,98351.00
2023-05-03T10:15:58.887Z,98349.50
2023-05-03T10:18:32.096Z,98341.56
2023-05-03T10:21:06.007Z,98344.03
2023-05-03T10:23:34.376Z,98341.59
2023-05-03T10:26:17.218Z,98347.41
2023-05-03T10:28:46.348Z,98338.25
2023-05-03T10:31:46.853Z,98332.19
2023-05-03T10:34:23.328Z,98340.59
2023-05-03T10:36:54.474Z,98339.28
2023-05-03T10:39:23.222Z,98325.47
2023-05-03T10:42:01.499Z,98324.81
2023-05-03T10:44:36.369Z,98330.03
2023-05-03T10:47:15.350Z,98326.47
2023-05-03T10:49:43.832Z,98320.53
2023-05-03T10:52:49.871Z,98327.56
2023-05-03T10:55:20.976Z,98322.25
2023-05-03T10:57:51.204Z,98313.28
2023-05-03T11:00:25.728Z,98311.56
2023-05-03T11:03:28.567Z,98307.63
2023-05-03T11:05:57.525Z,98302.53
2023-05-03T11:08:30.636Z,98306.09
2023-05-03T11:11:00.289Z,98303.34
2023-05-03T11:13:30.108Z,98311.75
2023-05-03T11:15:58.739Z,98305.25
2023-05-03T11:18:28.608Z,98296.44
2023-05-03T11:20:57.149Z,98294.91
2023-05-03T11:23:28.875Z,98296.69
2023-05-03T11:25:58.187Z,98293.25
2023-05-03T11:28:27.397Z,98293.09
2023-05-03T11:30:57.499Z,98288.81
2023-05-03T11:33:26.090Z,98293.63
2023-05-03T11:35:57.289Z,98295.13
2023-05-03T11:38:26.048Z,98285.78
2023-05-03T11:40:54.324Z,98290.16
2023-05-03T11:43:22.722Z,98291.59
2023-05-03T11:45:55.721Z,98284.28
2023-05-03T11:48:27.738Z,98286.78
2023-05-03T11:50:57.212Z,98290.47
2023-05-03T11:53:27.458Z,98279.63
2023-05-03T11:55:56.741Z,98288.53
2023-05-03T11:58:27.461Z,98288.69
2023-05-03T12:00:57.928Z,98284.88
2023-05-03T12:03:32.273Z,98289.00
2023-05-03T12:06:03.154Z,98288.16
2023-05-03T12:08:37.137Z,98278.78
2023-05-03T12:11:09.813Z,98277.91
2023-05-03T12:13:40.846Z,98279.97
2023-05-03T12:16:14.696Z,98273.94
2023-05-03T12:18:56.033Z,98275.19
2023-05-03T12:23:58.083Z,98277.19
2023-05-03T12:26:27.812Z,98278.97
2023-05-03T12:28:57.230Z,98276.75
2023-05-03T12:31:29.060Z,98262.06
2023-05-03T12:36:32.417Z,98268.09
2023-05-03T12:39:02.120Z,98263.34
2023-05-03T12:44:03.370Z,98259.84
2023-05-03T12:46:34.461Z,98259.25
2023-05-03T12:49:07.581Z,98249.91
2023-05-03T12:51:40.985Z,98250.16
2023-05-03T12:54:11.795Z,98253.88
2023-05-03T12:56:41.357Z,98242.28
2023-05-03T13:06:58.874Z,98247.59
2023-05-03T13:09:38.510Z,98244.09
2023-05-03T13:12:18.267Z,98241.59
2023-05-03T13:14:49.814Z,98237.88
2023-05-03T13:17:20.441Z,98225.41
2023-05-03T13:19:51.391Z,98231.03
2023-05-03T13:22:20.173Z,98227.28
2023-05-03T13:24:52.505Z,98234.53
2023-05-03T13:27:20.860Z,98225.59
2023-05-03T13:29:49.679Z,98227.41
2023-05-03T13:32:18.631Z,98220.16
2023-05-03T13:34:47.143Z,98221.38
2023-05-03T13:37:18.641Z,98213.06
2023-05-03T13:39:47.316Z,98218.03
2023-05-03T13:42:15.953Z,98205.75
2023-05-03T13:44:47.075Z,98213.63
2023-05-03T13:47:15.647Z,98202.41
2023-05-03T13:49:46.972Z,98193.44
2023-05-03T13:52:16.781Z,98195.47
2023-05-03T13:54:45.315Z,98196.09
2023-05-03T13:57:13.746Z,98192.97
2023-05-03T13:59:42.557Z,98195.69
2023-05-03T14:02:11.027Z,98194.69
2023-05-03T14:04:39.517Z,98186.78
2023-05-03T14:07:07.981Z,98187.81
2023-05-03T14:09:39.656Z,98186.56
2023-05-03T14:12:09.225Z,98188.63
2023-05-03T14:14:37.792Z,98183.84
2023-05-03T14:17:06.622Z,98185.50
2023-05-03T14:19:37.329Z,98190.69
2023-05-03T14:22:05.733Z,98180.50
2023-05-03T14:24:34.088Z,98182.97
2023-05-03T14:27:04.011Z,98188.19
2023-05-03T14:29:32.392Z,98179.22
2023-05-03T14:32:01.160Z,98177.94
2023-05-03T14:34:30.013Z,98174.00
2023-05-03T14:36:58.501Z,98166.47
2023-05-03T14:39:27.074Z,98169.38
2023-05-03T14:41:56.542Z,98175.84
2023-05-03T14:44:28.102Z,98182.28
2023-05-03T14:46:58.798Z,98177.72
2023-05-03T14:49:27.278Z,98184.19
2023-05-03T14:51:55.807Z,98173.56
2023-05-03T14:54:24.210Z,98170.69
2023-05-03T14:56:52.611Z,98179.88
2023-05-03T14:59:21.050Z,98171.81
2023-05-03T15:01:53.500Z,98171.63
2023-05-03T15:04:23.679Z,98174.75
2023-05-03T15:06:52.479Z,98174.97
2023-05-03T15:09:21.098Z,98177.75
2023-05-03T15:11:49.755Z,98179.00
2023-05-03T15:14:19.442Z,98183.19
2023-05-03T15:16:49.051Z,98178.19
2023-05-03T15:19:18.917Z,98182.34
2023-05-03T15:21:48.160Z,98176.53
2023-05-03T15:24:17.311Z,98174.44
2023-05-03T15:26:46.868Z,98185.03
2023-05-03T15:29:16.382Z,98175.91
2023-05-03T15:31:45.116Z,98176.34
2023-05-03T15:34:13.528Z,98174.88
2023-05-03T15:36:43.338Z,98171.97
2023-05-03T15:39:13.126Z,98179.88
2023-05-03T15:41:41.586Z,98170.09
2023-05-03T15:44:10.050Z,98169.06
2023-05-03T15:46:40.137Z,98165.31
2023-05-03T15:49:11.841Z,98174.25
2023-05-03T15:51:40.453Z,98172.19
2023-05-03T15:54:10.237Z,98174.88
2023-05-03T15:56:38.777Z,98179.47
2023-05-03T15:59:07.533Z,98181.13
2023-05-03T16:01:37.313Z,98186.09
2023-05-03T16:04:07.668Z,98181.09
2023-05-03T16:06:36.018Z,98175.72
2023-05-03T16:09:06.481Z,98177.34
2023-05-03T16:11:36.609Z,98176.31
2023-05-03T16:14:09.309Z,98179.84
2023-05-03T16:16:38.895Z,98176.09
2023-05-03T16:19:08.844Z,98169.41
2023-05-03T16:21:37.267Z,98178.34
2023-05-03T16:24:06.384Z,98169.63
2023-05-03T16:26:36.729Z,98165.69
2023-05-03T16:29:05.786Z,98170.66
2023-05-03T16:31:34.375Z,98170.66
2023-05-03T16:34:03.059Z,98165.06
2023-05-03T16:36:32.728Z,98162.38
2023-05-03T16:39:01.137Z,98167.31
2023-05-03T16:41:29.469Z,98167.53
2023-05-03T16:43:59.174Z,98169.63
2023-05-03T16:46:27.618Z,98172.31
2023-05-03T16:48:55.910Z,98164.19
2023-05-03T16:51:24.277Z,98162.13
2023-05-03T16:53:53.251Z,98171.47
2023-05-03T16:56:21.973Z,98166.47
2023-05-03T16:58:51.019Z,98160.84
2023-05-03T17:01:21.643Z,98175.56
2023-05-03T17:03:50.092Z,98168.94
2023-05-03T17:06:18.970Z,98164.97
2023-05-03T17:08:47.373Z,98166.16
2023-05-03T17:11:16.403Z,98168.03
2023-05-03T17:13:45.093Z,98171.31
2023-05-03T17:16:16.213Z,98174.16
2023-05-03T17:18:46.206Z,98178.09
2023-05-03T17:21:14.605Z,98179.94
2023-05-03T17:23:43.343Z,98174.69
2023-05-03T17:26:13.262Z,98174.69
2023-05-03T17:28:42.242Z,98173.59
2023-05-03T17:31:10.689Z,98177.91
2023-05-03T17:33:39.126Z,98179.09
2023-05-03T17:36:09.504Z,98186.94
2023-05-03T17:38:38.074Z,98190.41
2023-05-03T17:41:08.005Z,98183.34
2023-05-03T17:43:36.457Z,98189.47
2023-05-03T17:46:11.003Z,98186.53
2023-05-03T17:48:42.665Z,98185.66
2023-05-03T17:51:13.616Z,98185.41
2023-05-03T17:53:42.946Z,98182.44
2023-05-03T17:56:15.966Z,98184.91
2023-05-03T17:58:44.894Z,98189.00
2023-05-03T18:01:13.650Z,98190.63
2023-05-03T18:03:42.794Z,98190.38
2023-05-03T18:06:14.186Z,98190.97
2023-05-03T18:08:42.704Z,98189.84
2023-05-03T18:11:11.093Z,98193.13
2023-05-03T18:13:40.198Z,98192.88
2023-05-03T18:16:09.573Z,98197.16
2023-05-03T18:18:38.130Z,98191.69
2023-05-03T18:21:07.421Z,98189.75
2023-05-03T18:23:37.168Z,98186.19
2023-05-03T18:26:05.613Z,98194.34
2023-05-03T18:28:34.887Z,98198.00
2023-05-03T18:31:03.859Z,98187.53
2023-05-03T18:33:34.771Z,98198.22
2023-05-03T18:36:03.760Z,98198.31
2023-05-03T18:38:32.065Z,98195.94
2023-05-03T18:41:01.721Z,98210.47
2023-05-03T18:43:31.189Z,98202.47
2023-05-03T18:46:02.421Z,98212.03
2023-05-03T18:48:31.047Z,98215.63
2023-05-03T18:51:02.256Z,98210.53
2023-05-03T18:53:31.795Z,98217.63
2023-05-03T18:56:02.070Z,98221.41
2023-05-03T18:58:30.625Z,98222.50
2023-05-03T19:01:00.682Z,98232.50
2023-05-03T19:03:31.066Z,98232.59
2023-05-03T19:06:03.641Z,98238.16
2023-05-03T19:08:32.072Z,98233.69
2023-05-03T19:11:09.862Z,98235.78
2023-05-03T19:13:39.125Z,98237.50
2023-05-03T19:16:08.002Z,98233.19
2023-05-03T19:18:41.698Z,98237.78
2023-05-03T19:21:12.023Z,98240.53
2023-05-03T19:23:40.368Z,98247.13
2023-05-03T19:26:10.093Z,98250.69
2023-05-03T19:28:38.571Z,98249.69
2023-05-03T19:31:07.375Z,98243.03
2023-05-03T19:33:36.748Z,98248.25
2023-05-03T19:36:07.220Z,98244.97
2023-05-03T19:38:36.801Z,98255.84
2023-05-03T19:41:08.245Z,98251.69
2023-05-03T19:43:38.140Z,98255.25
2023-05-03T19:46:06.695Z,98249.91
2023-05-03T19:48:35.297Z,98248.28
2023-05-03T19:51:05.240Z,98254.63
2023-05-03T19:53:33.970Z,98251.75
2023-05-03T19:56:03.951Z,98254.25
2023-05-03T19:58:33.037Z,98259.31
2023-05-03T20:01:02.895Z,98259.97
2023-05-03T20:03:31.367Z,98273.84
2023-05-03T20:06:00.178Z,98257.47
2023-05-03T20:08:28.494Z,98260.97
2023-05-03T20:10:56.874Z,98249.09
2023-05-03T20:13:31.183Z,98248.94
2023-05-03T20:15:59.589Z,98255.63
2023-05-03T20:18:29.378Z,98248.25
2023-05-03T20:20:57.870Z,98248.75
2023-05-03T20:23:26.842Z,98251.09
2023-05-03T20:25:55.442Z,98250.59
2023-05-03T20:28:24.238Z,98255.59
2023-05-03T20:30:52.735Z,98251.06
2023-05-03T20:33:21.165Z,98249.56
2023-05-03T20:35:50.867Z,98248.34
2023-05-03T20:38:19.215Z,98248.84
2023-05-03T20:40:47.592Z,98251.16
2023-05-03T20:43:16.365Z,98253.47
2023-05-03T20:45:45.225Z,98258.47
2023-05-03T20:48:13.654Z,98261.63
2023-05-03T20:50:42.021Z,98256.94
2023-05-03T20:53:11.786Z,98259.25
2023-05-03T20:55:40.184Z,98249.03
2023-05-03T20:58:08.528Z,98247.03
2023-05-03T21:00:36.807Z,98256.03
2023-05-03T21:03:05.329Z,98253.69
2023-05-03T21:05:34.146Z,98258.66
2023-05-03T21:08:02.444Z,98259.81
2023-05-03T21:10:32.186Z,98267.47
2023-05-03T21:13:00.556Z,98261.94
2023-05-03T21:15:36.198Z,98268.13
2023-05-03T21:18:06.634Z,98261.41
2023-05-03T21:20:35.419Z,98264.56
2023-05-03T21:23:04.120Z,98261.38
2023-05-03T21:25:33.815Z,98253.00
2023-05-03T21:28:02.192Z,98261.34
2023-05-03T21:30:30.609Z,98265.16
2023-05-03T21:32:59.026Z,98261.94
2023-05-03T21:35:27.396Z,98257.91
2023-05-03T21:37:55.766Z,98254.72
2023-05-03T21:40:24.083Z,98263.19
2023-05-03T21:42:53.795Z,98256.50
2023-05-03T21:45:30.778Z,98263.16
2023-05-03T21:47:59.114Z,98255.44
2023-05-03T21:50:27.469Z,98248.72
2023-05-03T21:52:55.808Z,98250.91
2023-05-03T21:55:24.314Z,98256.53
2023-05-03T21:57:53.988Z,98247.16
2023-05-03T22:00:22.426Z,98243.81
2023-05-03T22:02:51.173Z,98235.97
2023-05-03T22:05:19.756Z,98244.28
2023-05-03T22:07:48.939Z,98235.91
2023-05-03T22:10:17.520Z,98236.22
2023-05-03T22:12:46.217Z,98240.84
2023-05-03T22:15:16.135Z,98241.16
2023-05-03T22:17:44.570Z,98236.13
2023-05-03T22:20:13.653Z,98233.97
2023-05-03T22:22:41.988Z,98243.94
2023-05-03T22:25:11.317Z,98229.41
2023-05-03T22:27:39.662Z,98237.72
2023-05-03T22:30:10.101Z,98235.50
2023-05-03T22:32:39.862Z,98234.81
2023-05-03T22:35:11.719Z,98237.78
2023-05-03T22:37:40.088Z,98233.59
2023-05-03T22:40:10.106Z,98236.72
2023-05-03T22:42:38.540Z,98229.69
2023-05-03T22:45:08.575Z,98232.81
2023-05-03T22:47:36.964Z,98227.75
2023-05-03T22:50:08.528Z,98232.56
2023-05-03T22:52:36.886Z,98230.34
2023-05-03T22:55:07.412Z,98234.31
2023-05-03T22:57:36.150Z,98233.63
2023-05-03T23:00:05.275Z,98226.09
2023-05-03T23:02:34.055Z,98229.91
2023-05-03T23:05:04.965Z,98225.69
2023-05-03T23:07:34.657Z,98230.50
2023-05-03T23:10:04.184Z,98227.28
2023-05-03T23:12:32.923Z,98231.25
2023-05-03T23:15:04.593Z,98228.88
2023-05-03T23:17:33.724Z,98229.19
2023-05-03T23:20:02.347Z,98224.16
2023-05-03T23:22:30.912Z,98224.44
2023-05-03T23:25:00.752Z,98224.75
2023-05-03T23:27:29.039Z,98226.72
2023-05-03T23:29:58.170Z,98216.50
2023-05-03T23:32:27.167Z,98222.13
2023-05-03T23:34:58.467Z,98217.94
2023-05-03T23:37:26.791Z,98219.25
2023-05-03T23:39:58.311Z,98214.22
2023-05-03T23:42:28.158Z,98225.31
2023-05-03T23:44:56.760Z,98218.56
2023-05-03T23:47:25.440Z,98217.06
2023-05-03T23:49:56.546Z,98218.19
2023-05-03T23:52:27.759Z,98214.13
2023-05-03T23:54:56.112Z,98218.78
2023-05-03T23:57:24.418Z,98211.38
2023-05-03T23:59:54.124Z,98213.50
